createdAt,value
2019-05-17T00:01:51.788Z,4.70
2019-05-17T00:04:22.583Z,4.40
2019-05-17T00:06:53.589Z,3.73
2019-05-17T00:09:26.607Z,5.00
2019-05-17T00:11:56.973Z,4.23
2019-05-17T00:14:28.221Z,5.57
2019-05-17T00:16:58.989Z,5.33
2019-05-17T00:19:29.726Z,4.13
2019-05-17T00:22:00.474Z,4.07
2019-05-17T00:24:31.188Z,5.40
2019-05-17T00:27:01.876Z,6.33
2019-05-17T00:29:32.722Z,7.23
2019-05-17T00:32:03.614Z,6.20
2019-05-17T00:34:34.427Z,4.93
2019-05-17T00:37:07.007Z,8.73
2019-05-17T00:39:42.873Z,7.03
2019-05-17T00:42:17.201Z,7.67
2019-05-17T00:44:48.904Z,8.17
2019-05-17T00:47:20.129Z,7.08
2019-05-17T00:49:50.839Z,6.50
2019-05-17T00:52:22.691Z,6.70
2019-05-17T00:54:53.422Z,7.80
2019-05-17T00:57:24.447Z,5.40
2019-05-17T00:59:56.570Z,10.17
2019-05-17T01:02:28.606Z,4.97
2019-05-17T01:04:59.323Z,7.87
2019-05-17T01:07:31.279Z,5.30
2019-05-17T01:10:02.101Z,11.73
2019-05-17T01:12:33.129Z,8.33
2019-05-17T01:15:04.029Z,9.30
2019-05-17T01:17:36.554Z,10.93
2019-05-17T01:20:08.159Z,6.90
2019-05-17T01:22:38.947Z,14.13
2019-05-17T01:25:10.001Z,7.40
2019-05-17T01:27:40.898Z,7.73
2019-05-17T01:30:11.843Z,9.33
2019-05-17T01:32:42.644Z,8.27
2019-05-17T01:35:13.432Z,12.17
2019-05-17T01:37:44.264Z,8.53
2019-05-17T01:40:17.680Z,8.80
2019-05-17T01:42:48.050Z,8.23
2019-05-17T01:45:18.944Z,8.63
2019-05-17T01:47:49.768Z,8.23
2019-05-17T01:50:21.438Z,8.80
2019-05-17T01:52:52.299Z,10.97
2019-05-17T01:55:23.178Z,9.33
2019-05-17T01:57:56.328Z,10.73
2019-05-17T02:00:26.928Z,9.83
2019-05-17T02:02:57.912Z,8.33
2019-05-17T02:05:28.645Z,9.27
2019-05-17T02:07:59.562Z,8.60
2019-05-17T02:10:30.460Z,6.87
2019-05-17T02:13:06.587Z,9.67
2019-05-17T02:15:37.759Z,11.70
2019-05-17T02:18:08.844Z,9.30
2019-05-17T02:20:39.623Z,9.23
2019-05-17T02:23:10.389Z,9.63
2019-05-17T02:25:41.106Z,9.73
2019-05-17T02:28:12.301Z,10.03
2019-05-17T02:30:44.149Z,12.97
2019-05-17T02:33:15.247Z,9.03
2019-05-17T02:35:46.129Z,9.07
2019-05-17T02:38:16.899Z,10.45
2019-05-17T02:40:47.630Z,11.77
2019-05-17T02:43:18.554Z,11.67
2019-05-17T02:45:52.499Z,10.80
2019-05-17T02:48:23.276Z,12.80
2019-05-17T02:50:55.370Z,7.80
2019-05-17T02:53:28.141Z,9.00
2019-05-17T02:56:02.950Z,12.83
2019-05-17T02:58:33.181Z,14.50
2019-05-17T03:01:06.401Z,8.70
2019-05-17T03:03:38.023Z,11.25
2019-05-17T03:06:08.826Z,14.90
2019-05-17T03:08:42.751Z,8.40
2019-05-17T03:11:13.586Z,10.87
2019-05-17T03:13:44.491Z,7.73
2019-05-17T03:16:15.207Z,13.07
2019-05-17T03:18:45.914Z,7.35
2019-05-17T03:21:16.702Z,10.50
2019-05-17T03:23:47.496Z,12.60
2019-05-17T03:26:18.331Z,8.60
2019-05-17T03:28:49.108Z,7.97
2019-05-17T03:31:25.713Z,9.03
2019-05-17T03:33:55.779Z,10.23
2019-05-17T03:36:26.560Z,12.40
2019-05-17T03:38:58.525Z,11.70
2019-05-17T03:41:29.704Z,10.30
2019-05-17T03:44:03.212Z,10.23
2019-05-17T03:46:34.421Z,10.43
2019-05-17T03:49:05.632Z,9.30
2019-05-17T03:51:37.022Z,8.33
2019-05-17T03:54:07.830Z,10.75
2019-05-17T03:56:38.666Z,10.17
2019-05-17T03:59:12.609Z,18.63
2019-05-17T04:01:43.626Z,7.30
2019-05-17T04:04:14.423Z,8.55
2019-05-17T04:06:45.284Z,9.77
2019-05-17T04:09:16.329Z,10.90
2019-05-17T04:11:47.117Z,9.23
2019-05-17T04:14:18.832Z,10.80
2019-05-17T04:16:49.622Z,9.67
2019-05-17T04:19:22.972Z,15.23
2019-05-17T04:21:53.805Z,12.70
2019-05-17T04:24:25.943Z,11.57
2019-05-17T04:26:57.813Z,9.87
2019-05-17T04:29:33.070Z,9.87
2019-05-17T04:32:04.170Z,11.73
2019-05-17T04:34:35.441Z,14.27
2019-05-17T04:37:06.307Z,11.67
2019-05-17T04:39:37.246Z,15.03
2019-05-17T04:42:08.349Z,13.30
2019-05-17T04:44:39.340Z,11.63
2019-05-17T04:47:13.198Z,12.73
2019-05-17T04:49:44.040Z,11.67
2019-05-17T04:52:15.033Z,10.43
2019-05-17T04:54:45.818Z,10.17
2019-05-17T04:57:16.819Z,15.60
2019-05-17T04:59:47.798Z,12.80
2019-05-17T05:02:19.114Z,12.07
2019-05-17T05:04:53.180Z,12.97
2019-05-17T05:07:23.086Z,13.85
2019-05-17T05:09:57.564Z,12.87
2019-05-17T05:12:28.311Z,13.93
2019-05-17T05:14:59.015Z,15.63
2019-05-17T05:17:32.670Z,11.10
2019-05-17T05:20:03.109Z,13.80
2019-05-17T05:22:35.979Z,10.07
2019-05-17T05:25:08.086Z,12.73
2019-05-17T05:27:38.779Z,9.90
2019-05-17T05:30:11.872Z,10.70
2019-05-17T05:32:43.048Z,9.87
2019-05-17T05:35:14.001Z,14.18
2019-05-17T05:37:45.400Z,14.27
2019-05-17T05:40:16.291Z,13.00
2019-05-17T05:42:47.103Z,13.10
2019-05-17T05:45:18.070Z,12.50
2019-05-17T05:47:48.825Z,12.03
2019-05-17T05:50:21.847Z,13.85
2019-05-17T05:52:52.449Z,12.97
2019-05-17T05:55:23.581Z,13.17
2019-05-17T05:57:57.346Z,15.00
2019-05-17T06:00:28.544Z,12.63
2019-05-17T06:02:59.301Z,15.00
2019-05-17T06:05:32.355Z,12.63
2019-05-17T06:08:03.042Z,14.70
2019-05-17T06:10:33.863Z,12.77
2019-05-17T06:13:05.528Z,15.43
2019-05-17T06:15:36.442Z,13.23
2019-05-17T06:18:07.525Z,11.77
2019-05-17T06:20:38.290Z,14.57
2019-05-17T06:23:12.267Z,12.47
2019-05-17T06:25:43.885Z,13.27
2019-05-17T06:28:14.749Z,12.60
2019-05-17T06:30:45.556Z,15.57
2019-05-17T06:33:29.897Z,14.95
2019-05-17T06:35:48.723Z,14.83
2019-05-17T06:38:19.556Z,12.93
2019-05-17T06:40:52.373Z,15.13
2019-05-17T06:43:22.877Z,14.50
2019-05-17T06:45:53.597Z,15.13
2019-05-17T06:48:26.045Z,14.10
2019-05-17T06:50:57.608Z,15.30
2019-05-17T06:53:28.406Z,11.95
2019-05-17T06:56:02.385Z,12.27
2019-05-17T06:58:32.965Z,14.23
2019-05-17T07:01:03.841Z,12.30
2019-05-17T07:03:36.876Z,12.97
2019-05-17T07:06:11.130Z,16.10
2019-05-17T07:08:42.052Z,12.77
2019-05-17T07:11:12.803Z,14.63
2019-05-17T07:13:43.545Z,14.27
2019-05-17T07:16:14.332Z,13.55
2019-05-17T07:18:45.073Z,11.83
2019-05-17T07:21:15.901Z,12.43
2019-05-17T07:23:46.582Z,15.17
2019-05-17T07:26:19.722Z,13.50
2019-05-17T07:28:51.870Z,13.75
2019-05-17T07:31:23.315Z,13.53
2019-05-17T07:33:54.828Z,15.70
2019-05-17T07:36:25.716Z,9.50
2019-05-17T07:38:57.037Z,12.57
2019-05-17T07:41:29.876Z,13.60
2019-05-17T07:44:00.704Z,15.73
2019-05-17T07:46:31.649Z,15.57
2019-05-17T07:49:02.690Z,17.10
2019-05-17T07:51:35.859Z,15.90
2019-05-17T07:54:06.703Z,16.23
2019-05-17T07:56:39.990Z,15.87
2019-05-17T07:59:10.074Z,17.35
2019-05-17T08:01:42.855Z,15.30
2019-05-17T08:04:14.666Z,14.20
2019-05-17T08:06:46.551Z,14.50
2019-05-17T08:09:20.349Z,14.45
2019-05-17T08:11:50.693Z,13.90
2019-05-17T08:14:30.037Z,14.78
2019-05-17T08:16:54.052Z,12.07
2019-05-17T08:19:25.973Z,14.83
2019-05-17T08:21:59.564Z,18.60
2019-05-17T08:24:30.369Z,16.70
2019-05-17T08:27:01.428Z,17.80
2019-05-17T08:29:32.480Z,18.00
2019-05-17T08:32:03.550Z,20.00
2019-05-17T08:34:34.382Z,17.27
2019-05-17T08:37:05.549Z,16.50
2019-05-17T08:39:36.347Z,16.65
2019-05-17T08:42:09.834Z,15.43
2019-05-17T08:44:42.426Z,17.67
2019-05-17T08:47:13.276Z,16.10
2019-05-17T08:49:44.202Z,14.43
2019-05-17T08:52:14.944Z,15.77
2019-05-17T08:54:45.873Z,16.50
2019-05-17T08:57:17.339Z,15.75
2019-05-17T08:59:49.735Z,15.77
2019-05-17T09:02:20.908Z,15.00
2019-05-17T09:04:52.647Z,14.53
2019-05-17T09:07:23.447Z,14.83
2019-05-17T09:09:54.141Z,14.30
2019-05-17T09:12:26.960Z,14.90
2019-05-17T09:14:57.733Z,14.27
2019-05-17T09:17:30.000Z,13.50
2019-05-17T09:20:00.972Z,13.97
2019-05-17T09:22:32.743Z,15.10
2019-05-17T09:25:03.747Z,15.77
2019-05-17T09:27:34.370Z,15.17
2019-05-17T09:30:09.457Z,14.13
2019-05-17T09:32:40.736Z,13.07
2019-05-17T09:35:11.822Z,11.23
2019-05-17T09:37:42.598Z,13.70
2019-05-17T09:40:13.678Z,12.68
2019-05-17T09:42:44.524Z,14.57
2019-05-17T09:45:15.370Z,13.60
2019-05-17T09:47:46.206Z,12.67
2019-05-17T09:50:20.083Z,13.73
2019-05-17T09:52:51.125Z,14.20
2019-05-17T09:55:24.212Z,13.47
2019-05-17T09:57:54.922Z,14.23
2019-05-17T10:00:25.880Z,13.30
2019-05-17T10:02:56.837Z,13.73
2019-05-17T10:05:31.179Z,12.50
2019-05-17T10:08:01.191Z,13.37
2019-05-17T10:10:34.300Z,14.77
2019-05-17T10:13:09.731Z,11.70
2019-05-17T10:15:41.216Z,13.27
2019-05-17T10:18:12.166Z,12.60
2019-05-17T10:20:43.012Z,12.17
2019-05-17T10:23:14.802Z,13.98
2019-05-17T10:25:45.772Z,12.33
2019-05-17T10:28:22.422Z,11.68
2019-05-17T10:30:55.544Z,12.03
2019-05-17T10:33:26.339Z,11.63
2019-05-17T10:36:00.445Z,7.90
2019-05-17T10:38:40.770Z,10.57
2019-05-17T10:41:13.327Z,9.67
2019-05-17T10:43:44.781Z,9.00
2019-05-17T10:46:15.695Z,6.60
2019-05-17T10:48:46.426Z,6.77
2019-05-17T10:51:17.179Z,6.60
2019-05-17T10:53:51.056Z,6.03
2019-05-17T10:56:23.496Z,6.28
2019-05-17T10:58:53.491Z,6.93
2019-05-17T11:01:24.220Z,5.43
2019-05-17T11:03:56.595Z,5.03
2019-05-17T11:06:27.332Z,5.43
2019-05-17T11:08:59.465Z,5.63
2019-05-17T11:11:30.664Z,5.83
2019-05-17T11:14:01.505Z,4.27
2019-05-17T11:16:32.665Z,5.47
2019-05-17T11:19:03.446Z,5.07
2019-05-17T11:21:34.136Z,4.10
2019-05-17T11:24:05.369Z,4.80
2019-05-17T11:26:36.311Z,3.93
2019-05-17T11:29:07.165Z,5.03
2019-05-17T11:31:37.976Z,4.05
2019-05-17T11:34:08.834Z,4.73
2019-05-17T11:36:42.181Z,4.40
2019-05-17T11:39:15.819Z,4.47
2019-05-17T11:41:47.777Z,4.37
2019-05-17T11:44:18.550Z,4.17
2019-05-17T11:46:51.088Z,4.00
2019-05-17T11:49:22.893Z,4.00
2019-05-17T11:51:54.573Z,4.07
2019-05-17T11:54:26.172Z,3.73
2019-05-17T11:56:57.034Z,6.03
2019-05-17T11:59:28.031Z,4.63
2019-05-17T12:01:58.967Z,4.17
2019-05-17T12:04:29.728Z,4.37
2019-05-17T12:07:00.588Z,5.20
2019-05-17T12:09:37.537Z,4.30
2019-05-17T12:12:05.371Z,4.93
2019-05-17T12:14:36.293Z,4.13
2019-05-17T12:17:07.058Z,4.77
2019-05-17T12:19:37.915Z,4.63
2019-05-17T12:22:08.703Z,4.17
2019-05-17T12:24:39.578Z,4.07
2019-05-17T12:27:10.631Z,4.22
2019-05-17T12:29:41.695Z,8.67
2019-05-17T12:32:16.789Z,4.53
2019-05-17T12:34:45.172Z,5.30
2019-05-17T12:37:16.062Z,4.77
2019-05-17T12:39:46.932Z,3.77
2019-05-17T12:42:17.975Z,6.62
2019-05-17T12:44:48.882Z,4.13
2019-05-17T12:47:19.717Z,6.03
2019-05-17T12:49:50.590Z,7.83
2019-05-17T12:52:24.510Z,4.53
2019-05-17T12:54:55.432Z,4.20
2019-05-17T12:57:30.042Z,5.50
2019-05-17T13:00:02.254Z,4.13
2019-05-17T13:02:33.798Z,4.00
2019-05-17T13:05:07.069Z,3.72
2019-05-17T13:07:40.588Z,6.90
2019-05-17T13:10:11.309Z,6.80
2019-05-17T13:12:45.093Z,5.90
2019-05-17T13:15:18.301Z,5.13
2019-05-17T13:17:49.874Z,5.73
2019-05-17T13:20:20.937Z,6.22
2019-05-17T13:22:52.008Z,3.80
2019-05-17T13:25:22.834Z,4.30
2019-05-17T13:27:53.604Z,5.90
2019-05-17T13:30:24.540Z,4.97
2019-05-17T13:32:55.263Z,5.23
2019-05-17T13:35:26.024Z,8.23
2019-05-17T13:37:56.838Z,4.17
2019-05-17T13:40:27.656Z,3.80
2019-05-17T13:42:58.909Z,5.17
2019-05-17T13:45:30.161Z,4.17
2019-05-17T13:48:01.286Z,5.27
2019-05-17T13:50:32.167Z,4.73
2019-05-17T13:53:03.726Z,4.47
2019-05-17T13:55:35.121Z,4.37
2019-05-17T13:58:06.235Z,4.20
2019-05-17T14:00:37.045Z,5.73
2019-05-17T14:03:07.938Z,4.57
2019-05-17T14:05:39.041Z,4.60
2019-05-17T14:08:09.864Z,4.80
2019-05-17T14:10:42.410Z,6.10
2019-05-17T14:13:15.985Z,4.33
2019-05-17T14:15:46.916Z,6.10
2019-05-17T14:18:18.183Z,5.13
2019-05-17T14:20:49.105Z,6.33
2019-05-17T14:23:20.047Z,4.45
2019-05-17T14:25:53.145Z,6.10
2019-05-17T14:28:23.998Z,5.57
2019-05-17T14:30:54.838Z,6.10
2019-05-17T14:33:25.729Z,4.40
2019-05-17T14:35:56.576Z,5.37
2019-05-17T14:38:27.377Z,3.92
2019-05-17T14:41:06.484Z,6.70
2019-05-17T14:43:31.912Z,5.80
2019-05-17T14:46:04.360Z,4.63
2019-05-17T14:48:35.519Z,6.40
2019-05-17T14:51:06.942Z,6.10
2019-05-17T14:53:38.178Z,7.53
2019-05-17T14:56:11.798Z,5.93
2019-05-17T14:58:43.088Z,11.30
2019-05-17T15:01:13.954Z,5.80
2019-05-17T15:03:44.760Z,5.77
2019-05-17T15:06:19.542Z,5.67
2019-05-17T15:08:50.798Z,7.87
2019-05-17T15:11:25.503Z,4.83
2019-05-17T15:13:56.636Z,7.58
2019-05-17T15:16:29.760Z,5.13
2019-05-17T15:19:00.759Z,6.23
2019-05-17T15:21:36.595Z,4.50
2019-05-17T15:24:07.340Z,5.33
2019-05-17T15:26:38.206Z,7.43
2019-05-17T15:29:10.735Z,4.90
2019-05-17T15:31:44.061Z,6.27
2019-05-17T15:34:14.910Z,5.70
2019-05-17T15:36:55.886Z,5.37
2019-05-17T15:39:48.626Z,7.17
2019-05-17T15:42:19.814Z,6.17
2019-05-17T15:44:54.387Z,7.43
2019-05-17T15:47:27.400Z,8.30
2019-05-17T15:50:00.494Z,6.72
2019-05-17T15:52:33.316Z,7.60
2019-05-17T15:55:04.611Z,9.03
2019-05-17T15:57:35.998Z,7.43
2019-05-17T16:00:08.839Z,8.30
2019-05-17T16:02:42.813Z,9.23
2019-05-17T16:05:14.907Z,7.65
2019-05-17T16:07:46.023Z,6.07
2019-05-17T16:10:18.389Z,6.95
2019-05-17T16:13:01.911Z,8.73
2019-05-17T16:15:24.025Z,8.30
2019-05-17T16:17:58.633Z,6.20
2019-05-17T16:20:29.627Z,7.43
2019-05-17T16:23:03.438Z,7.10
2019-05-17T16:25:53.812Z,5.28
2019-05-17T16:28:47.270Z,8.27
2019-05-17T16:31:18.389Z,6.65
2019-05-17T16:33:50.979Z,6.17
2019-05-17T16:36:22.954Z,5.87
2019-05-17T16:38:53.833Z,7.77
2019-05-17T16:41:25.760Z,6.70
2019-05-17T16:43:56.798Z,7.37
2019-05-17T16:46:27.714Z,5.93
2019-05-17T16:49:00.393Z,6.20
2019-05-17T16:51:33.227Z,6.97
2019-05-17T16:54:04.279Z,7.50
2019-05-17T16:56:35.135Z,7.73
2019-05-17T16:59:06.077Z,8.03
2019-05-17T17:01:40.606Z,6.40
2019-05-17T17:04:11.564Z,6.33
2019-05-17T17:06:43.592Z,8.47
2019-05-17T17:09:15.531Z,7.33
2019-05-17T17:11:46.557Z,5.90
2019-05-17T17:14:19.007Z,7.77
2019-05-17T17:16:50.870Z,9.50
2019-05-17T17:19:21.839Z,8.00
2019-05-17T17:21:52.763Z,8.93
2019-05-17T17:24:26.649Z,6.23
2019-05-17T17:26:58.185Z,6.43
2019-05-17T17:29:31.625Z,7.53
2019-05-17T17:32:04.524Z,6.73
2019-05-17T17:34:35.504Z,5.40
2019-05-17T17:37:07.363Z,5.33
2019-05-17T17:39:38.139Z,5.73
2019-05-17T17:42:08.931Z,7.72
2019-05-17T17:44:40.392Z,5.10
2019-05-17T17:47:11.879Z,8.43
2019-05-17T17:49:43.200Z,8.07
2019-05-17T17:52:14.027Z,5.63
2019-05-17T17:54:44.984Z,4.90
2019-05-17T17:57:20.858Z,4.53
2019-05-17T17:59:55.714Z,4.67
2019-05-17T18:02:30.009Z,7.37
2019-05-17T18:05:03.552Z,5.03
2019-05-17T18:07:37.111Z,4.33
2019-05-17T18:10:08.088Z,4.43
2019-05-17T18:12:58.491Z,6.63
2019-05-17T18:15:39.868Z,4.87
2019-05-17T18:18:10.831Z,5.53
2019-05-17T18:20:41.765Z,5.07
2019-05-17T18:23:12.809Z,6.75
2019-05-17T18:25:43.902Z,5.43
2019-05-17T18:28:17.408Z,5.67
2019-05-17T18:30:51.487Z,7.27
2019-05-17T18:33:22.415Z,4.03
2019-05-17T18:35:53.403Z,6.07
2019-05-17T18:38:26.533Z,4.95
2019-05-17T18:40:57.782Z,4.30
2019-05-17T18:43:28.692Z,4.63
2019-05-17T18:46:01.127Z,4.10
2019-05-17T18:48:32.880Z,6.03
2019-05-17T18:51:44.044Z,5.20
2019-05-17T18:54:16.675Z,7.60
2019-05-17T18:56:48.112Z,4.03
2019-05-17T18:59:18.898Z,5.25
2019-05-17T19:01:49.691Z,6.07
2019-05-17T19:04:20.455Z,4.15
2019-05-17T19:07:13.758Z,4.80
2019-05-17T19:09:44.725Z,8.13
2019-05-17T19:12:15.643Z,7.58
2019-05-17T19:14:46.848Z,4.20
2019-05-17T19:17:17.830Z,4.20
2019-05-17T19:20:06.013Z,4.10
2019-05-17T19:22:38.616Z,5.37
2019-05-17T19:25:12.044Z,5.87
2019-05-17T19:27:42.876Z,4.60
2019-05-17T19:30:15.374Z,4.75
2019-05-17T19:32:46.270Z,3.80
2019-05-17T19:35:17.093Z,7.20
2019-05-17T19:37:49.904Z,7.43
2019-05-17T19:40:21.342Z,9.30
2019-05-17T19:42:52.246Z,4.00
2019-05-17T19:45:23.425Z,4.70
2019-05-17T19:47:57.028Z,5.15
2019-05-17T19:50:28.926Z,8.07
2019-05-17T19:52:59.936Z,8.60
2019-05-17T19:55:33.315Z,5.23
2019-05-17T19:58:08.292Z,8.50
2019-05-17T20:00:43.461Z,9.07
2019-05-17T20:03:14.731Z,9.67
2019-05-17T20:05:45.606Z,9.57
2019-05-17T20:08:17.035Z,6.77
2019-05-17T20:10:51.476Z,6.37
2019-05-17T20:13:20.924Z,7.00
2019-05-17T20:15:53.106Z,6.73
2019-05-17T20:18:23.888Z,7.37
2019-05-17T20:20:54.923Z,6.20
2019-05-17T20:23:25.822Z,9.40
2019-05-17T20:26:01.503Z,8.90
2019-05-17T20:28:36.045Z,11.17
2019-05-17T20:31:07.795Z,9.40
2019-05-17T20:33:38.605Z,9.70
2019-05-17T20:36:12.239Z,9.85
2019-05-17T20:39:13.491Z,9.73
2019-05-17T20:41:44.387Z,8.00
2019-05-17T20:44:15.347Z,9.13
2019-05-17T20:46:46.138Z,8.83
2019-05-17T20:49:16.887Z,8.58
2019-05-17T20:51:47.617Z,8.23
2019-05-17T20:54:18.384Z,7.97
2019-05-17T20:56:49.570Z,7.90
2019-05-17T20:59:20.406Z,10.13
2019-05-17T21:01:51.262Z,11.07
2019-05-17T21:04:21.988Z,8.17
2019-05-17T21:06:53.860Z,13.47
2019-05-17T21:09:24.558Z,9.67
2019-05-17T21:11:55.228Z,12.88
2019-05-17T21:14:25.942Z,8.57
2019-05-17T21:16:56.693Z,11.27
2019-05-17T21:19:27.469Z,12.90
2019-05-17T21:21:58.420Z,9.23
2019-05-17T21:24:29.271Z,15.13
2019-05-17T21:27:00.022Z,10.73
2019-05-17T21:29:30.740Z,12.28
2019-05-17T21:32:01.500Z,14.83
2019-05-17T21:34:32.288Z,15.47
2019-05-17T21:37:03.162Z,12.17
2019-05-17T21:39:33.982Z,12.93
2019-05-17T21:42:05.346Z,9.30
2019-05-17T21:44:36.101Z,13.70
2019-05-17T21:47:07.002Z,9.33
2019-05-17T21:49:37.728Z,16.00
2019-05-17T21:52:08.505Z,13.70
2019-05-17T21:54:39.384Z,15.70
2019-05-17T21:57:10.056Z,13.98
2019-05-17T21:59:40.733Z,16.77
2019-05-17T22:02:11.538Z,16.52
2019-05-17T22:04:42.268Z,13.37
2019-05-17T22:07:13.071Z,15.23
2019-05-17T22:09:43.832Z,10.57
2019-05-17T22:12:15.018Z,14.40
2019-05-17T22:14:45.780Z,13.90
2019-05-17T22:17:16.551Z,14.60
2019-05-17T22:19:47.222Z,17.87
2019-05-17T22:22:17.964Z,11.97
2019-05-17T22:24:48.647Z,13.05
2019-05-17T22:27:19.438Z,12.93
2019-05-17T22:29:50.212Z,10.53
2019-05-17T22:32:20.966Z,17.33
2019-05-17T22:34:51.775Z,14.03
2019-05-17T22:37:22.633Z,14.30
2019-05-17T22:39:53.472Z,16.17
2019-05-17T22:42:24.392Z,11.97
2019-05-17T22:44:55.122Z,11.23
2019-05-17T22:47:25.974Z,15.47
2019-05-17T22:49:56.687Z,14.30
2019-05-17T22:52:27.578Z,15.37
2019-05-17T22:54:58.271Z,14.90
2019-05-17T22:57:29.121Z,15.70
2019-05-17T22:59:59.870Z,15.23
2019-05-17T23:02:30.704Z,16.20
2019-05-17T23:05:01.673Z,14.67
2019-05-17T23:07:33.093Z,17.07
2019-05-17T23:10:03.800Z,16.03
2019-05-17T23:12:34.500Z,15.83
2019-05-17T23:15:06.125Z,15.83
2019-05-17T23:17:37.810Z,15.43
2019-05-17T23:20:08.925Z,17.10
2019-05-17T23:22:39.628Z,18.47
2019-05-17T23:25:10.774Z,14.60
2019-05-17T23:27:41.431Z,14.53
2019-05-17T23:30:12.581Z,16.93
2019-05-17T23:32:43.348Z,17.03
2019-05-17T23:35:14.781Z,18.57
2019-05-17T23:37:45.566Z,15.43
2019-05-17T23:40:16.398Z,17.70
2019-05-17T23:42:47.201Z,16.67
2019-05-17T23:45:18.159Z,16.12
2019-05-17T23:47:48.970Z,18.17
2019-05-17T23:50:19.820Z,13.83
2019-05-17T23:52:50.588Z,16.73
2019-05-17T23:55:21.445Z,15.93
2019-05-17T23:57:52.173Z,16.53
